Time;durP1;ratioP1;P1;durP2;ratioP2;P2;SDS_P1;SDS_P2;PMS_P1;PMS_P2;Temp;Humidity;BMP_temperature;BMP_pressure;BME280_temperature;BME280_humidity;BME280_pressure;Samples;Min_cycle;Max_cycle;Signal;HPM_P1;HPM_P2
2021/12/04 00:04:12;;;;;;;8.23;5.60;;;;;;;-1.24;83.92;95585.03;10384576;28;97942;-64
2021/12/04 00:09:17;;;;;;;9.10;5.50;;;;;;;-1.24;84.02;95576.53;10391422;28;102787;-65
2021/12/04 00:14:21;;;;;;;9.80;5.67;;;;;;;-1.16;83.56;95571.78;10387433;28;96900;-64
2021/12/04 00:19:25;;;;;;;9.88;6.28;;;;;;;-1.14;84.01;95565.63;10389315;28;96727;-65
2021/12/04 00:24:28;;;;;;;9.23;5.20;;;;;;;-1.14;84.27;95559.69;10380418;28;96869;-65
2021/12/04 00:29:32;;;;;;;10.15;5.78;;;;;;;-1.11;83.92;95550.06;10391241;28;97043;-65
2021/12/04 00:34:39;;;;;;;7.25;4.82;;;;;;;-1.16;84.72;95546.97;10399576;28;97104;-65
2021/12/04 00:50:24;;;;;;;3.33;2.70;;;;;;;-1.04;84.49;95524.88;10403994;28;96699;-65
2021/12/04 00:55:27;;;;;;;4.60;3.25;;;;;;;-0.98;85.01;95518.56;10389732;28;96745;-65
2021/12/04 01:00:31;;;;;;;5.05;2.97;;;;;;;-0.91;84.73;95530.06;10406236;27;102939;-65
2021/12/04 01:05:34;;;;;;;5.15;2.95;;;;;;;-0.92;84.88;95513.06;10417009;27;96829;-64
2021/12/04 01:10:37;;;;;;;3.30;2.40;;;;;;;-0.80;85.19;95512.28;10388855;28;96902;-65
2021/12/04 01:15:44;;;;;;;5.57;2.60;;;;;;;-0.82;85.14;95503.88;10385094;27;96691;-64
2021/12/04 01:20:47;;;;;;;5.45;3.72;;;;;;;-0.78;85.23;95484.81;10403951;27;98294;-64
2021/12/04 01:25:49;;;;;;;3.40;2.30;;;;;;;-0.69;85.31;95480.00;10409553;27;97931;-65
2021/12/04 01:30:53;;;;;;;3.28;2.10;;;;;;;-0.68;85.27;95492.75;10405723;27;98902;-65
2021/12/04 01:35:56;;;;;;;2.45;1.63;;;;;;;-0.83;85.83;95471.44;10410178;27;98383;-65
2021/12/04 01:40:59;;;;;;;3.47;1.67;;;;;;;-0.67;85.58;95467.91;10407623;27;98054;-64
2021/12/04 01:46:04;;;;;;;2.78;1.90;;;;;;;-0.67;85.72;95475.59;10408919;28;96994;-64
2021/12/04 01:51:08;;;;;;;1.90;1.30;;;;;;;-0.69;86.04;95451.81;10412169;27;97703;-64
2021/12/04 01:56:11;;;;;;;2.70;1.67;;;;;;;-0.58;85.73;95459.63;10409252;28;98596;-64
2021/12/04 02:01:15;;;;;;;1.77;1.30;;;;;;;-0.58;85.58;95464.75;10406458;28;98336;-64
2021/12/04 02:06:18;;;;;;;2.33;1.40;;;;;;;-0.57;85.87;95451.81;10392663;28;100113;-64
2021/12/04 02:11:21;;;;;;;1.23;1.00;;;;;;;-0.57;86.05;95439.00;10406072;27;97172;-64
2021/12/04 02:16:25;;;;;;;1.13;1.00;;;;;;;-0.64;86.38;95444.63;10407313;28;97633;-65
2021/12/04 02:21:31;;;;;;;1.67;1.25;;;;;;;-0.54;86.23;95427.72;10406485;27;98617;-65
2021/12/04 02:26:34;;;;;;;2.40;1.48;;;;;;;-0.52;86.25;95433.56;10404814;27;99057;-64
2021/12/04 02:31:36;;;;;;;2.30;1.30;;;;;;;-0.50;86.49;95426.59;10408788;28;98536;-65
2021/12/04 02:36:41;;;;;;;1.65;1.10;;;;;;;-0.25;86.29;95419.84;10397266;28;98342;-64
2021/12/04 02:41:44;;;;;;;1.43;1.10;;;;;;;-0.23;85.99;95412.84;10395631;28;97722;-65
2021/12/04 02:46:47;;;;;;;1.40;1.00;;;;;;;-0.29;86.80;95411.53;10393342;28;98609;-64
2021/12/04 02:51:51;;;;;;;0.93;0.80;;;;;;;-0.29;86.52;95390.19;10388585;27;96909;-64
2021/12/04 02:56:54;;;;;;;1.50;0.90;;;;;;;-0.22;86.71;95386.28;10401363;28;97319;-64
2021/12/04 03:01:58;;;;;;;1.90;0.75;;;;;;;-0.27;87.12;95383.19;10400785;28;100419;-64
2021/12/04 03:07:02;;;;;;;1.27;0.60;;;;;;;-0.30;87.30;95380.81;10395880;27;97467;-64
2021/12/04 03:12:06;;;;;;;1.05;0.65;;;;;;;-0.33;87.53;95382.69;10402144;28;98511;-64
2021/12/04 03:17:09;;;;;;;1.02;0.60;;;;;;;-0.30;87.63;95375.69;10405563;27;99396;-64
2021/12/04 03:22:15;;;;;;;0.93;0.60;;;;;;;-0.26;87.75;95359.19;10395409;28;97696;-64
2021/12/04 03:27:19;;;;;;;0.63;0.60;;;;;;;-0.22;87.39;95337.50;10404710;28;97090;-64
2021/12/04 03:43:05;;;;;;;0.57;0.57;;;;;;;-0.28;88.04;95327.66;10371526;28;97107;-64
2021/12/04 03:48:12;;;;;;;0.77;0.70;;;;;;;-0.30;88.09;95324.38;10366663;28;97723;-64
2021/12/04 03:53:16;;;;;;;1.02;0.70;;;;;;;-0.31;87.80;95313.28;10355478;28;97744;-63
2021/12/04 03:58:20;;;;;;;0.73;0.60;;;;;;;-0.18;88.27;95305.56;10354609;28;97009;-64
2021/12/04 04:03:25;;;;;;;1.88;0.65;;;;;;;-0.11;88.50;95304.25;10360491;28;97875;-63
2021/12/04 04:08:29;;;;;;;0.80;0.80;;;;;;;-0.05;87.80;95293.53;10356814;28;97112;-64
2021/12/04 04:13:32;;;;;;;0.90;0.70;;;;;;;0.02;87.81;95281.91;10372624;28;99496;-63
2021/12/04 04:18:35;;;;;;;0.82;0.52;;;;;;;-0.03;88.14;95268.56;10402021;28;102523;-64
2021/12/04 04:23:39;;;;;;;1.77;0.50;;;;;;;-0.14;87.93;95258.22;10404622;28;96996;-65
2021/12/04 04:28:42;;;;;;;1.23;0.70;;;;;;;-0.04;89.14;95259.22;10396546;28;100417;-64
2021/12/04 04:33:45;;;;;;;0.40;0.40;;;;;;;0.01;88.19;95257.16;10392977;27;100125;-64
2021/12/04 04:39:01;;;;;;;0.60;0.50;;;;;;;-0.01;88.70;95253.91;10412783;27;96868;-65
2021/12/04 05:00:25;;;;;;;1.10;0.60;;;;;;;0.23;88.95;95245.38;10412410;27;98848;-64
2021/12/04 05:11:06;;;;;;;0.40;0.40;;;;;;;-0.03;89.09;95242.88;10409834;28;97847;-64
2021/12/04 05:16:13;;;;;;;0.38;0.38;;;;;;;0.10;89.43;95244.59;10406883;27;99716;-64
2021/12/04 05:21:17;;;;;;;0.50;0.32;;;;;;;0.10;89.47;95231.75;10404514;28;97997;-64
2021/12/04 05:26:25;;;;;;;0.40;0.40;;;;;;;0.25;89.01;95243.50;10407275;28;98649;-64
2021/12/04 05:31:28;;;;;;;0.70;0.40;;;;;;;0.56;89.13;95225.88;10399665;28;99142;-64
2021/12/04 05:36:31;;;;;;;0.30;0.30;;;;;;;0.59;88.70;95230.81;10401970;27;96967;-64
2021/12/04 05:41:36;;;;;;;0.50;0.45;;;;;;;0.58;88.81;95234.31;10395641;28;96912;-64
2021/12/04 05:46:44;;;;;;;0.50;0.50;;;;;;;0.75;89.51;95223.59;10397622;28;98983;-64
2021/12/04 05:52:02;;;;;;;0.95;0.52;;;;;;;0.72;89.03;95218.72;10406288;28;98544;-65
2021/12/04 05:57:07;;;;;;;1.83;0.70;;;;;;;0.77;89.58;95228.63;10405397;28;98806;-64
2021/12/04 06:02:10;;;;;;;0.77;0.52;;;;;;;0.76;89.25;95212.41;10406769;27;99325;-64
2021/12/04 06:07:13;;;;;;;2.13;0.45;;;;;;;0.84;89.62;95218.72;10403829;28;98568;-64
2021/12/04 06:12:17;;;;;;;0.95;0.50;;;;;;;0.74;89.57;95203.16;10406117;27;98526;-65
2021/12/04 06:17:22;;;;;;;1.13;0.60;;;;;;;0.85;90.04;95212.66;10407178;28;97773;-64
2021/12/04 06:22:41;;;;;;;0.50;0.30;;;;;;;0.92;89.41;95201.00;10409193;28;97722;-65
2021/12/04 06:27:45;;;;;;;0.40;0.40;;;;;;;1.04;90.13;95199.25;10408032;27;96760;-65
2021/12/04 06:32:50;;;;;;;0.40;0.40;;;;;;;1.14;89.28;95202.75;10409532;28;98675;-65
2021/12/04 06:37:53;;;;;;;0.75;0.50;;;;;;;1.26;89.31;95195.88;10407884;27;100557;-65
2021/12/04 06:42:59;;;;;;;0.73;0.50;;;;;;;1.25;89.70;95191.66;10414042;28;96955;-65
2021/12/04 06:48:06;;;;;;;0.52;0.43;;;;;;;1.31;89.06;95191.19;10407954;27;100524;-65
2021/12/04 06:53:19;;;;;;;0.73;0.43;;;;;;;1.30;89.71;95179.28;10400740;28;96985;-65
2021/12/04 06:58:26;;;;;;;0.68;0.50;;;;;;;1.34;89.27;95172.94;10404107;28;98114;-65
2021/12/04 07:03:30;;;;;;;0.85;0.70;;;;;;;1.59;89.53;95173.63;10399310;27;97936;-65
2021/12/04 07:08:33;;;;;;;0.50;0.50;;;;;;;1.50;89.84;95159.72;10398995;28;98771;-65
2021/12/04 07:13:37;;;;;;;1.10;0.57;;;;;;;1.55;89.57;95158.41;10402941;28;98621;-64
2021/12/04 07:18:40;;;;;;;0.68;0.60;;;;;;;1.69;89.74;95154.75;10402508;28;99337;-65
2021/12/04 07:23:44;;;;;;;1.27;0.82;;;;;;;1.85;89.80;95154.41;10402512;28;97097;-65
2021/12/04 07:28:48;;;;;;;0.60;0.50;;;;;;;1.98;89.18;95149.09;10402704;28;98216;-65
2021/12/04 07:33:51;;;;;;;0.65;0.55;;;;;;;1.88;89.44;95137.88;10410626;28;97254;-65
2021/12/04 07:38:54;;;;;;;1.40;0.88;;;;;;;2.02;89.14;95134.19;10404584;27;98759;-64
2021/12/04 07:43:59;;;;;;;0.90;0.70;;;;;;;1.98;90.23;95123.31;10405758;28;98549;-65
2021/12/04 07:49:02;;;;;;;0.60;0.60;;;;;;;1.96;89.53;95122.63;10404451;28;98437;-65
2021/12/04 07:54:05;;;;;;;1.30;0.75;;;;;;;2.01;89.48;95111.94;10392636;28;99925;-65
2021/12/04 07:59:10;;;;;;;1.80;0.77;;;;;;;1.99;89.46;95104.38;10402539;28;97280;-65
2021/12/04 08:04:12;;;;;;;0.70;0.70;;;;;;;2.07;89.65;95096.00;10407190;28;98453;-64
2021/12/04 08:09:15;;;;;;;0.93;0.77;;;;;;;2.12;89.45;95093.88;10409711;28;96901;-64
2021/12/04 08:14:19;;;;;;;1.20;0.70;;;;;;;2.24;89.20;95084.34;10408319;27;98517;-65
2021/12/04 08:19:22;;;;;;;2.28;0.73;;;;;;;2.34;89.15;95081.81;10408847;28;97661;-65
2021/12/04 08:24:26;;;;;;;2.25;0.75;;;;;;;2.30;88.99;95070.94;10403538;27;98527;-64
2021/12/04 08:29:30;;;;;;;1.45;0.75;;;;;;;2.43;89.79;95070.78;10404031;27;96937;-65
2021/12/04 08:34:33;;;;;;;1.10;0.80;;;;;;;2.47;89.43;95066.97;10412451;28;98798;-65
2021/12/04 08:39:36;;;;;;;1.70;0.80;;;;;;;2.44;88.75;95062.06;10407890;27;97059;-65
2021/12/04 08:44:41;;;;;;;3.22;1.20;;;;;;;2.50;89.39;95053.84;10397942;28;96999;-65
2021/12/04 08:49:44;;;;;;;1.10;0.83;;;;;;;2.50;89.87;95046.13;10400696;28;97733;-65
2021/12/04 08:54:47;;;;;;;1.52;1.10;;;;;;;2.52;89.33;95041.63;10408932;28;99103;-65
2021/12/04 08:59:52;;;;;;;3.17;1.73;;;;;;;2.57;89.84;95036.09;10403229;27;99477;-65
2021/12/04 09:04:57;;;;;;;1.88;1.13;;;;;;;2.64;89.06;95030.28;10415131;27;98929;-65
2021/12/04 09:10:03;;;;;;;2.25;0.85;;;;;;;2.71;89.95;95030.59;10412039;27;98525;-65
2021/12/04 09:15:12;;;;;;;1.30;0.90;;;;;;;2.90;89.85;95032.44;10416257;27;99590;-64
2021/12/04 09:20:17;;;;;;;1.48;1.00;;;;;;;2.96;89.67;95013.88;10406836;28;99092;-65
2021/12/04 09:25:23;;;;;;;1.60;0.77;;;;;;;3.04;89.69;95008.84;10406369;28;98743;-65
2021/12/04 10:19:42;;;;;;;1.02;0.68;;;;;;;3.55;89.28;94981.22;10048908;28;97233;-66
2021/12/04 10:35:32;;;;;;;1.08;0.60;;;;;;;3.67;89.53;94966.38;10041981;28;98215;-66
2021/12/04 10:40:41;;;;;;;1.05;0.80;;;;;;;3.73;89.69;94958.09;10198681;28;97954;-65
2021/12/04 10:45:49;;;;;;;0.88;0.70;;;;;;;3.81;89.52;94957.41;10198830;28;97177;-66
2021/12/04 10:51:01;;;;;;;1.30;0.90;;;;;;;3.85;89.49;94945.03;10278351;28;96918;-65
2021/12/04 10:56:22;;;;;;;1.48;0.90;;;;;;;3.89;89.63;94949.00;10398054;27;98809;-64
2021/12/04 11:01:38;;;;;;;3.17;1.45;;;;;;;3.88;89.61;94944.75;10395689;28;96884;-65
2021/12/04 11:23:19;;;;;;;3.22;1.50;;;;;;;4.00;88.95;94943.66;10416453;28;96982;-66
2021/12/04 11:28:31;;;;;;;1.50;1.10;;;;;;;4.08;89.37;94930.84;10402419;28;98982;-66
2021/12/04 11:39:08;;;;;;;2.20;1.10;;;;;;;4.20;89.43;94924.56;10405363;27;96978;-66
2021/12/04 11:44:16;;;;;;;2.03;1.52;;;;;;;4.25;89.13;94918.97;10409671;28;96873;-65
2021/12/04 11:49:22;;;;;;;3.17;1.50;;;;;;;4.29;89.30;94911.75;10395912;28;96933;-65
2021/12/04 11:54:30;;;;;;;3.05;2.05;;;;;;;4.38;89.32;94910.88;10415776;28;96809;-66
2021/12/04 11:59:36;;;;;;;3.38;1.85;;;;;;;4.42;89.41;94907.06;10415252;28;97795;-66
2021/12/04 12:04:42;;;;;;;1.90;1.35;;;;;;;4.41;89.34;94910.59;10403591;27;98282;-65
2021/12/04 12:09:50;;;;;;;2.45;1.20;;;;;;;4.42;89.42;94901.06;10417387;28;96754;-66
2021/12/04 12:14:55;;;;;;;2.13;1.50;;;;;;;4.43;89.60;94902.72;10416677;27;97405;-66
2021/12/04 12:19:59;;;;;;;6.78;3.67;;;;;;;4.41;90.03;94902.84;10395987;28;97060;-66
2021/12/04 12:25:23;;;;;;;2.05;1.40;;;;;;;4.43;89.83;94907.88;10416583;28;97116;-66
2021/12/04 12:36:05;;;;;;;2.35;1.17;;;;;;;4.58;89.73;94903.88;10415296;27;96999;-66
2021/12/04 12:41:12;;;;;;;2.88;1.63;;;;;;;4.67;89.59;94899.59;10414258;27;98002;-65
2021/12/04 12:46:17;;;;;;;2.45;1.10;;;;;;;4.77;89.63;94884.84;10418574;27;96896;-66
2021/12/04 12:51:29;;;;;;;2.43;1.00;;;;;;;4.78;89.51;94896.81;10402987;27;97004;-65
2021/12/04 12:56:37;;;;;;;1.65;1.05;;;;;;;4.84;89.45;94878.13;10407034;27;97000;-66
2021/12/04 13:12:25;;;;;;;1.80;1.38;;;;;;;4.82;89.72;94887.81;10401436;28;96834;-66
2021/12/04 13:17:29;;;;;;;1.83;1.10;;;;;;;4.88;89.79;94876.06;10393731;28;96806;-66
2021/12/04 13:22:33;;;;;;;1.30;0.77;;;;;;;4.95;89.79;94861.56;10395441;28;96947;-66
2021/12/04 13:32:42;;;;;;;4.30;1.40;;;;;;;5.04;89.64;94855.50;10397728;27;97086;-66
2021/12/04 13:37:45;;;;;;;;;;;;;;;4.98;89.71;94865.66;10400363;27;96828;-66
2021/12/04 13:42:49;;;;;;;3.47;1.90;;;;;;;4.96;89.49;94873.56;10412894;27;96872;-66
2021/12/04 13:47:54;;;;;;;1.92;1.20;;;;;;;4.91;89.57;94886.94;10412296;27;96894;-66
2021/12/04 13:52:58;;;;;;;2.03;1.40;;;;;;;5.01;89.63;94905.00;10426664;27;98897;-66
2021/12/04 13:58:04;;;;;;;4.68;1.98;;;;;;;5.11;89.45;94882.44;10396391;28;98503;-66
2021/12/04 14:03:07;;;;;;;4.93;2.92;;;;;;;5.18;89.52;94861.13;10407786;28;97489;-66
2021/12/04 14:08:11;;;;;;;4.32;2.70;;;;;;;5.22;89.83;94865.88;10408599;28;98611;-66
2021/12/04 14:13:18;;;;;;;3.85;2.30;;;;;;;5.36;89.49;94863.69;10413314;28;96933;-66
2021/12/04 14:18:23;;;;;;;2.78;1.50;;;;;;;5.46;89.37;94864.44;10403218;28;96932;-66
2021/12/04 14:23:28;;;;;;;3.47;1.58;;;;;;;5.69;89.62;94834.50;10395751;27;96920;-66
2021/12/04 14:28:38;;;;;;;3.57;1.50;;;;;;;5.91;89.57;94832.34;10394303;28;99630;-66
2021/12/04 14:33:42;;;;;;;1.92;1.25;;;;;;;5.84;89.17;94826.16;10397257;27;99309;-65
2021/12/04 14:38:47;;;;;;;2.03;1.50;;;;;;;5.85;89.28;94826.00;10413110;28;97137;-66
2021/12/04 14:43:51;;;;;;;0.43;0.40;;;;;;;6.00;86.98;94840.97;10412822;28;97521;-66
2021/12/04 14:48:54;;;;;;;1.20;0.57;;;;;;;5.93;86.29;94814.88;10405486;28;97257;-66
2021/12/04 14:53:58;;;;;;;1.77;1.08;;;;;;;5.68;87.09;94842.41;10403770;27;97116;-66
2021/12/04 14:59:15;;;;;;;1.80;1.13;;;;;;;5.47;87.65;94840.97;10415157;27;96943;-66
2021/12/04 15:04:17;;;;;;;1.83;1.15;;;;;;;5.43;88.11;94833.66;10417938;27;96986;-66
2021/12/04 15:09:20;;;;;;;2.53;1.60;;;;;;;5.36;88.09;94832.63;10406387;27;96866;-66
2021/12/04 15:14:32;;;;;;;3.22;1.70;;;;;;;5.36;88.27;94827.44;10411919;28;96782;-66
2021/12/04 15:19:40;;;;;;;2.03;1.42;;;;;;;5.41;88.50;94832.97;10415220;28;96893;-66
2021/12/04 15:24:45;;;;;;;2.85;1.52;;;;;;;5.47;88.76;94842.75;10401144;28;99134;-67
2021/12/04 15:29:51;;;;;;;1.20;1.00;;;;;;;5.51;88.80;94870.81;10415959;27;97263;-66
2021/12/04 15:35:01;;;;;;;1.88;1.08;;;;;;;5.51;88.85;94919.19;10400671;28;97254;-67
2021/12/04 15:40:06;;;;;;;1.73;1.00;;;;;;;5.59;88.52;94900.31;10417454;27;98684;-66
2021/12/04 15:45:26;;;;;;;1.52;0.93;;;;;;;5.53;87.92;94886.16;10407441;28;98892;-66
2021/12/04 15:50:55;;;;;;;1.27;0.65;;;;;;;5.46;86.94;94903.28;10411814;27;98520;-66
2021/12/04 15:55:58;;;;;;;1.27;0.50;;;;;;;5.63;81.79;94883.50;10404563;27;98978;-66
2021/12/04 16:01:08;;;;;;;1.10;0.40;;;;;;;5.71;77.47;94874.00;10422671;27;96903;-66
2021/12/04 16:06:11;;;;;;;0.98;0.60;;;;;;;5.61;78.01;94899.19;10407959;27;96962;-66
2021/12/04 16:11:16;;;;;;;1.05;0.50;;;;;;;5.78;76.04;94894.97;10412603;27;97082;-66
2021/12/04 16:16:23;;;;;;;1.95;0.70;;;;;;;5.96;74.55;94902.69;10403438;27;97201;-65
2021/12/04 16:21:26;;;;;;;3.78;0.60;;;;;;;5.56;76.49;94880.69;10421936;27;97295;-66
2021/12/04 16:26:30;;;;;;;1.15;0.50;;;;;;;5.34;77.33;94893.16;10411854;27;96848;-64
2021/12/04 16:32:14;;;;;;;1.77;0.80;;;;;;;5.14;78.96;94892.47;10416758;27;98105;-66
2021/12/04 16:37:30;;;;;;;1.85;0.70;;;;;;;5.08;79.49;94900.03;10410264;28;96928;-66
2021/12/04 16:42:34;;;;;;;2.25;0.50;;;;;;;5.18;78.69;94898.19;10400532;28;98537;-67
2021/12/04 16:48:00;;;;;;;0.65;0.60;;;;;;;5.15;78.41;94867.44;10419695;27;97115;-67
2021/12/04 16:58:23;;;;;;;2.60;0.85;;;;;;;5.20;76.82;94852.25;10409726;28;96787;-66
2021/12/04 17:03:28;;;;;;;2.85;0.82;;;;;;;5.03;77.83;94848.72;10419753;27;97441;-66
2021/12/04 17:08:31;;;;;;;2.15;0.70;;;;;;;5.08;77.95;94845.66;10410956;27;97248;-66
2021/12/04 17:13:34;;;;;;;1.02;0.88;;;;;;;5.10;78.20;94859.28;10414019;27;96968;-66
2021/12/04 17:18:46;;;;;;;2.50;1.08;;;;;;;5.05;78.99;94869.28;10414531;27;96842;-66
2021/12/04 17:23:49;;;;;;;2.83;0.80;;;;;;;5.11;78.94;94866.06;10413621;27;97902;-65
2021/12/04 17:28:52;;;;;;;2.15;1.08;;;;;;;5.16;79.40;94874.22;10406235;28;97187;-65
2021/12/04 17:34:00;;;;;;;1.37;0.67;;;;;;;5.22;79.24;94899.53;10401439;27;96990;-66
2021/12/04 17:39:07;;;;;;;1.17;0.40;;;;;;;5.08;80.21;94949.19;10405486;27;96965;-66
2021/12/04 17:44:14;;;;;;;0.95;0.60;;;;;;;4.90;81.07;94978.44;10416346;27;98526;-66
2021/12/04 17:49:19;;;;;;;1.02;0.35;;;;;;;4.28;83.57;94987.66;10409074;27;97424;-66
2021/12/04 17:54:23;;;;;;;2.00;1.00;;;;;;;3.69;86.26;94974.84;10406183;27;97106;-66
2021/12/04 17:59:29;;;;;;;0.90;0.60;;;;;;;3.50;87.44;94941.25;10406341;28;96800;-66
2021/12/04 18:04:37;;;;;;;0.55;0.40;;;;;;;3.44;87.45;94934.88;10417097;27;98675;-66
2021/12/04 18:09:40;;;;;;;0.98;0.40;;;;;;;3.41;87.84;94930.81;10415932;27;97073;-66
2021/12/04 18:14:45;;;;;;;1.00;0.75;;;;;;;3.43;88.12;94922.91;10411600;27;97409;-65
2021/12/04 18:19:50;;;;;;;0.90;0.57;;;;;;;3.47;88.39;94978.50;10417846;27;97351;-64
2021/12/04 18:24:53;;;;;;;1.02;0.60;;;;;;;3.34;89.27;95004.56;10398763;28;100894;-66
2021/12/04 18:29:56;;;;;;;1.17;0.50;;;;;;;3.37;89.06;95009.47;10399374;27;96991;-64
2021/12/04 18:35:01;;;;;;;0.85;0.70;;;;;;;3.13;90.34;95030.47;10400618;27;97557;-66
2021/12/04 18:40:09;;;;;;;0.00;0.00;;;;;;;2.79;90.08;95050.56;10414741;27;96798;-66
2021/12/04 18:45:14;;;;;;;0.30;0.20;;;;;;;2.82;90.19;95045.16;10416216;28;97337;-65
2021/12/04 18:50:20;;;;;;;0.90;0.40;;;;;;;2.83;90.36;95026.19;10414175;28;96937;-66
2021/12/04 18:55:23;;;;;;;0.22;0.13;;;;;;;2.46;89.63;94982.88;10415732;27;96870;-65
2021/12/04 19:00:41;;;;;;;0.50;0.20;;;;;;;2.39;90.33;95020.41;10414536;27;98886;-65
2021/12/04 19:05:49;;;;;;;0.52;0.10;;;;;;;2.46;89.57;94996.56;10412497;27;96901;-64
2021/12/04 19:10:53;;;;;;;0.45;0.20;;;;;;;2.49;89.36;95035.00;10416229;27;97527;-66
2021/12/04 19:15:56;;;;;;;0.20;0.20;;;;;;;2.52;89.88;95013.28;10406837;28;101051;-65
2021/12/04 19:21:02;;;;;;;0.85;0.40;;;;;;;2.54;88.73;95044.09;10411395;27;97272;-65
2021/12/04 19:26:07;;;;;;;0.52;0.13;;;;;;;2.61;88.41;95078.72;10422426;27;98004;-64
2021/12/04 19:31:13;;;;;;;0.43;0.43;;;;;;;2.68;84.24;95092.75;10403751;27;99332;-65
2021/12/04 19:52:29;;;;;;;0.82;0.50;;;;;;;2.65;86.29;95186.66;10406522;27;96935;-64
2021/12/04 19:57:37;;;;;;;3.35;1.10;;;;;;;2.56;84.93;95184.81;10402078;28;96977;-65
2021/12/04 20:02:47;;;;;;;1.73;0.63;;;;;;;2.62;80.58;95210.09;10409746;28;97000;-65
2021/12/04 20:08:07;;;;;;;1.98;0.85;;;;;;;2.63;78.91;95196.28;10405305;27;97371;-65
2021/12/04 20:18:32;;;;;;;3.95;1.70;;;;;;;2.44;81.28;95211.56;10394715;28;97878;-65
2021/12/04 20:23:39;;;;;;;0.60;0.30;;;;;;;2.18;84.28;95232.53;10403346;28;97299;-65
2021/12/04 20:34:09;;;;;;;0.45;0.30;;;;;;;2.13;86.47;95250.13;10398813;27;96932;-64
2021/12/04 21:11:38;;;;;;;1.67;0.60;;;;;;;2.07;84.72;95287.47;10400429;27;96961;-64
2021/12/04 21:39:09;;;;;;;2.00;0.50;;;;;;;2.14;84.86;95303.25;10281129;28;97186;-64
2021/12/04 21:49:44;;;;;;;3.30;0.82;;;;;;;2.18;84.89;95312.41;10126000;28;97235;-64
2021/12/04 21:54:49;;;;;;;2.67;1.20;;;;;;;2.18;85.47;95330.44;10129413;28;96906;-65
2021/12/04 22:10:41;;;;;;;3.80;1.00;;;;;;;2.08;86.04;95347.56;10250832;28;97960;-64
2021/12/04 22:26:56;;;;;;;3.88;1.20;;;;;;;1.91;85.79;95313.59;10399314;27;96976;-64
2021/12/04 22:58:46;;;;;;;1.63;0.90;;;;;;;1.81;85.81;95301.53;10403348;27;96979;-65
2021/12/04 23:04:07;;;;;;;2.92;1.35;;;;;;;1.82;86.00;95288.53;10412146;28;97039;-65
2021/12/04 23:14:40;;;;;;;2.17;0.90;;;;;;;1.70;86.70;95279.19;10398570;28;97052;-64
2021/12/04 23:36:08;;;;;;;4.50;1.85;;;;;;;1.63;86.47;95286.56;10246449;28;97270;-62
2021/12/04 23:46:54;;;;;;;4.97;1.50;;;;;;;1.54;86.52;95282.91;10233262;28;101404;-64
